createdAt,value
2019-01-09T00:01:38.840Z,6.00
2019-01-09T00:05:01.586Z,6.00
2019-01-09T00:08:17.670Z,5.90
2019-01-09T00:11:40.060Z,6.00
2019-01-09T00:14:56.307Z,5.90
2019-01-09T00:18:19.080Z,5.90
2019-01-09T00:21:34.406Z,5.90
2019-01-09T00:24:56.802Z,5.90
2019-01-09T00:28:12.686Z,5.80
2019-01-09T00:31:35.124Z,5.90
2019-01-09T00:34:56.813Z,5.80
2019-01-09T00:38:19.523Z,5.80
2019-01-09T00:41:35.200Z,5.80
2019-01-09T00:44:57.567Z,5.70
2019-01-09T00:48:13.525Z,5.90
2019-01-09T00:51:35.918Z,5.80
2019-01-09T00:54:39.170Z,5.90
2019-01-09T00:58:01.575Z,5.80
2019-01-09T01:01:17.089Z,5.90
2019-01-09T01:05:18.551Z,6.00
2019-01-09T01:13:37.187Z,5.80
2019-01-09T01:17:11.638Z,5.90
2019-01-09T01:20:48.796Z,5.80
2019-01-09T01:24:50.109Z,5.70
2019-01-09T01:28:11.674Z,5.60
2019-01-09T01:31:46.656Z,5.70
2019-01-09T01:35:41.637Z,5.70
2019-01-09T01:39:16.754Z,5.90
2019-01-09T01:42:38.564Z,5.70
2019-01-09T01:46:39.896Z,5.80
2019-01-09T01:50:01.417Z,5.80
2019-01-09T01:53:36.269Z,5.70
2019-01-09T01:57:32.866Z,5.70
2019-01-09T02:01:08.071Z,5.70
2019-01-09T02:04:42.616Z,5.80
2019-01-09T02:08:17.195Z,6.00
2019-01-09T02:12:18.795Z,5.90
2019-01-09T02:15:55.289Z,6.10
2019-01-09T02:19:49.345Z,5.90
2019-01-09T02:23:14.204Z,5.90
2019-01-09T02:26:53.968Z,5.70
2019-01-09T02:30:29.318Z,6.00
2019-01-09T02:33:51.713Z,5.70
2019-01-09T02:37:14.300Z,5.80
2019-01-09T02:40:37.367Z,5.80
2019-01-09T02:43:52.762Z,5.90
2019-01-09T02:47:08.264Z,6.00
2019-01-09T02:50:23.987Z,5.80
2019-01-09T02:53:46.681Z,5.60
2019-01-09T02:57:02.525Z,5.60
2019-01-09T03:00:24.915Z,5.90
2019-01-09T03:03:40.424Z,5.90
2019-01-09T03:06:56.637Z,5.90
2019-01-09T03:10:19.030Z,6.00
2019-01-09T03:13:34.173Z,5.90
2019-01-09T03:16:49.373Z,5.70
2019-01-09T03:20:12.221Z,5.80
2019-01-09T03:23:27.986Z,5.70
2019-01-09T03:26:43.638Z,5.70
2019-01-09T03:34:04.077Z,5.40
2019-01-09T03:37:19.705Z,5.70
2019-01-09T03:40:42.477Z,5.60
2019-01-09T03:43:58.037Z,5.60
2019-01-09T03:47:07.583Z,5.60
2019-01-09T03:50:29.965Z,5.70
2019-01-09T03:53:45.263Z,5.60
2019-01-09T03:57:00.943Z,5.60
2019-01-09T04:00:23.949Z,5.60
2019-01-09T04:03:39.549Z,5.60
2019-01-09T04:07:01.939Z,5.70
2019-01-09T04:10:17.086Z,5.50
2019-01-09T04:13:39.832Z,5.60
2019-01-09T04:16:55.767Z,5.60
2019-01-09T04:20:18.148Z,5.60
2019-01-09T04:23:33.290Z,5.50
2019-01-09T04:26:55.652Z,5.40
2019-01-09T04:30:12.791Z,5.40
2019-01-09T04:33:35.190Z,5.50
2019-01-09T04:36:51.856Z,5.70
2019-01-09T04:40:07.978Z,5.60
2019-01-09T04:43:30.469Z,5.70
2019-01-09T04:46:46.721Z,5.60
2019-01-09T04:50:03.224Z,5.50
2019-01-09T04:53:25.695Z,5.60
2019-01-09T04:56:41.599Z,5.60
2019-01-09T05:00:04.293Z,5.50
2019-01-09T05:03:21.841Z,5.40
2019-01-09T05:06:37.180Z,5.40
2019-01-09T05:09:59.563Z,5.50
2019-01-09T05:13:14.641Z,5.40
2019-01-09T05:16:37.046Z,5.40
2019-01-09T05:19:53.248Z,5.50
2019-01-09T05:23:15.641Z,5.70
2019-01-09T05:26:31.612Z,5.80
2019-01-09T05:29:54.299Z,5.70
2019-01-09T05:33:10.283Z,5.70
2019-01-09T05:36:33.371Z,5.80
2019-01-09T05:39:48.772Z,5.70
2019-01-09T05:43:11.171Z,5.50
2019-01-09T05:46:26.337Z,5.60
2019-01-09T05:49:49.026Z,5.50
2019-01-09T05:53:04.349Z,5.70
2019-01-09T05:56:26.732Z,5.60
2019-01-09T05:59:42.112Z,5.60
2019-01-09T06:03:04.498Z,5.50
2019-01-09T06:06:19.971Z,5.50
2019-01-09T06:09:35.047Z,5.70
2019-01-09T06:12:57.762Z,5.50
2019-01-09T06:16:19.253Z,5.50
2019-01-09T06:19:41.926Z,5.50
2019-01-09T06:22:57.114Z,5.30
2019-01-09T06:26:19.512Z,5.20
2019-01-09T06:29:34.901Z,5.00
2019-01-09T06:32:57.886Z,5.20
2019-01-09T06:36:13.605Z,5.30
2019-01-09T06:39:36.002Z,5.20
2019-01-09T06:42:51.325Z,5.50
2019-01-09T06:46:06.875Z,5.40
2019-01-09T06:49:23.173Z,5.40
2019-01-09T06:52:45.927Z,5.40
2019-01-09T06:56:02.035Z,5.50
2019-01-09T06:59:25.057Z,5.60
2019-01-09T07:02:40.959Z,5.50
2019-01-09T07:06:03.699Z,5.40
2019-01-09T07:09:19.660Z,5.40
2019-01-09T07:12:34.775Z,5.50
2019-01-09T07:15:57.159Z,5.40
2019-01-09T07:19:13.387Z,5.40
2019-01-09T07:22:28.507Z,5.40
2019-01-09T07:25:50.975Z,5.40
2019-01-09T07:29:06.105Z,5.50
2019-01-09T07:32:28.561Z,5.50
2019-01-09T07:35:43.823Z,5.50
2019-01-09T07:38:59.263Z,5.40
2019-01-09T07:42:21.648Z,5.40
2019-01-09T07:45:37.526Z,5.40
2019-01-09T07:48:53.980Z,5.40
2019-01-09T07:52:09.139Z,5.40
2019-01-09T07:55:24.426Z,5.30
2019-01-09T07:58:40.073Z,5.30
2019-01-09T08:02:02.429Z,5.30
2019-01-09T08:05:18.348Z,5.40
2019-01-09T08:08:40.739Z,5.30
2019-01-09T08:11:56.164Z,5.20
2019-01-09T08:15:11.177Z,5.50
2019-01-09T08:18:33.942Z,5.90
2019-01-09T08:21:49.980Z,5.50
2019-01-09T08:25:12.711Z,5.30
2019-01-09T08:28:29.413Z,5.10
2019-01-09T08:31:51.815Z,5.20
2019-01-09T08:35:07.044Z,5.20
2019-01-09T08:38:29.519Z,5.30
2019-01-09T08:41:45.390Z,5.40
2019-01-09T08:45:07.831Z,5.30
2019-01-09T08:48:22.885Z,5.30
2019-01-09T08:51:45.749Z,5.30
2019-01-09T08:55:01.349Z,5.30
2019-01-09T08:58:24.080Z,5.30
2019-01-09T09:01:39.870Z,5.40
2019-01-09T09:05:02.269Z,5.40
2019-01-09T09:08:18.953Z,5.40
2019-01-09T09:11:41.403Z,5.60
2019-01-09T09:14:57.620Z,5.40
2019-01-09T09:18:20.002Z,5.40
2019-01-09T09:21:35.928Z,5.60
2019-01-09T09:24:58.412Z,5.60
2019-01-09T09:28:13.764Z,5.60
2019-01-09T09:31:29.176Z,5.60
2019-01-09T09:34:51.549Z,5.60
2019-01-09T09:38:06.828Z,5.70
2019-01-09T09:41:29.230Z,5.70
2019-01-09T09:44:45.174Z,5.70
2019-01-09T09:48:00.669Z,5.70
2019-01-09T09:51:23.120Z,5.70
2019-01-09T09:54:38.711Z,5.80
2019-01-09T09:58:05.796Z,5.80
2019-01-09T10:01:39.078Z,5.80
2019-01-09T10:05:01.785Z,5.70
2019-01-09T10:08:17.422Z,5.80
2019-01-09T10:11:40.412Z,5.80
2019-01-09T10:14:55.984Z,5.70
2019-01-09T10:18:18.433Z,5.80
2019-01-09T10:21:34.314Z,5.80
2019-01-09T10:24:57.391Z,5.70
2019-01-09T10:28:13.339Z,5.80
2019-01-09T10:31:35.739Z,5.80
2019-01-09T10:34:49.290Z,5.90
2019-01-09T10:38:05.065Z,5.90
2019-01-09T10:41:27.776Z,5.70
2019-01-09T10:44:45.605Z,5.90
2019-01-09T10:48:01.435Z,5.90
2019-01-09T10:51:17.342Z,6.10
2019-01-09T10:54:32.463Z,6.00
2019-01-09T10:57:55.300Z,6.30
2019-01-09T11:01:11.293Z,6.20
2019-01-09T11:04:26.654Z,6.10
2019-01-09T11:07:49.384Z,6.00
2019-01-09T11:11:11.768Z,5.80
2019-01-09T11:14:27.553Z,5.90
2019-01-09T11:17:50.252Z,6.00
2019-01-09T11:21:06.051Z,6.10
2019-01-09T11:24:28.457Z,6.00
2019-01-09T11:27:44.131Z,6.30
2019-01-09T11:31:00.047Z,6.10
2019-01-09T11:34:22.722Z,6.10
2019-01-09T11:37:38.804Z,5.90
2019-01-09T11:40:53.822Z,6.10
2019-01-09T11:44:16.747Z,6.10
2019-01-09T11:47:32.558Z,6.00
2019-01-09T11:50:55.247Z,6.30
2019-01-09T11:54:10.912Z,6.00
2019-01-09T11:57:34.257Z,6.20
2019-01-09T12:00:49.249Z,6.00
2019-01-09T12:04:12.220Z,6.00
2019-01-09T12:07:27.867Z,6.10
2019-01-09T12:10:50.628Z,6.10
2019-01-09T12:14:05.837Z,6.00
2019-01-09T12:17:28.530Z,6.00
2019-01-09T12:20:44.494Z,6.00
2019-01-09T12:23:59.571Z,6.00
2019-01-09T12:27:22.004Z,6.20
2019-01-09T12:30:37.490Z,6.30
2019-01-09T12:34:00.276Z,6.30
2019-01-09T12:37:15.881Z,6.10
2019-01-09T12:40:38.252Z,6.10
2019-01-09T12:43:53.303Z,6.20
2019-01-09T12:47:09.187Z,6.20
2019-01-09T12:50:25.939Z,6.10
2019-01-09T12:53:48.384Z,6.30
2019-01-09T12:57:03.805Z,6.20
2019-01-09T13:00:20.437Z,6.20
2019-01-09T13:03:43.166Z,6.20
2019-01-09T13:06:58.935Z,6.40
2019-01-09T13:10:14.996Z,6.00
2019-01-09T13:13:37.708Z,6.10
2019-01-09T13:16:52.861Z,6.00
2019-01-09T13:20:08.975Z,6.00
2019-01-09T13:23:31.722Z,6.00
2019-01-09T13:26:46.764Z,5.90
2019-01-09T13:30:13.211Z,6.00
2019-01-09T13:33:42.812Z,6.10
2019-01-09T13:36:58.480Z,6.00
2019-01-09T13:40:20.844Z,6.10
2019-01-09T13:43:38.101Z,6.10
2019-01-09T13:47:00.506Z,6.10
2019-01-09T13:50:17.923Z,6.10
2019-01-09T13:53:33.031Z,5.90
2019-01-09T13:56:55.400Z,6.20
2019-01-09T14:00:12.267Z,6.10
2019-01-09T14:03:28.012Z,6.20
2019-01-09T14:06:50.757Z,6.20
2019-01-09T14:10:08.133Z,6.10
2019-01-09T14:13:30.613Z,6.10
2019-01-09T14:16:46.327Z,6.20
2019-01-09T14:20:02.289Z,6.00
2019-01-09T14:23:24.683Z,6.20
2019-01-09T14:26:40.248Z,6.00
2019-01-09T14:29:55.443Z,6.10
2019-01-09T14:33:17.804Z,6.10
2019-01-09T14:36:32.920Z,6.00
2019-01-09T14:39:55.391Z,6.00
2019-01-09T14:43:10.639Z,6.00
2019-01-09T14:46:33.301Z,6.20
2019-01-09T14:49:49.258Z,6.20
2019-01-09T14:53:12.199Z,6.20
2019-01-09T14:56:27.635Z,6.10
2019-01-09T14:59:50.000Z,6.00
2019-01-09T15:03:05.778Z,6.10
2019-01-09T15:06:28.170Z,6.00
2019-01-09T15:09:43.837Z,6.00
2019-01-09T15:13:06.255Z,5.90
2019-01-09T15:16:21.721Z,5.90
2019-01-09T15:19:44.095Z,5.90
2019-01-09T15:22:59.626Z,5.90
2019-01-09T15:26:21.991Z,5.90
2019-01-09T15:29:38.143Z,5.70
2019-01-09T15:33:00.909Z,5.90
2019-01-09T15:36:16.764Z,5.80
2019-01-09T15:39:39.160Z,5.70
2019-01-09T15:42:54.637Z,5.90
2019-01-09T15:46:17.002Z,5.80
2019-01-09T15:49:33.115Z,5.80
2019-01-09T15:52:55.602Z,5.80
2019-01-09T15:56:11.911Z,5.80
2019-01-09T15:59:27.884Z,5.80
2019-01-09T16:02:50.381Z,5.70
2019-01-09T16:06:05.454Z,5.80
2019-01-09T16:09:27.842Z,5.70
2019-01-09T16:12:43.198Z,5.70
2019-01-09T16:16:05.718Z,5.80
2019-01-09T16:19:21.761Z,5.80
2019-01-09T16:22:44.126Z,5.80
2019-01-09T16:25:59.237Z,5.80
2019-01-09T16:29:21.916Z,5.60
2019-01-09T16:32:36.924Z,5.70
2019-01-09T16:35:59.636Z,5.80
2019-01-09T16:39:17.387Z,5.80
2019-01-09T16:42:40.788Z,5.70
2019-01-09T16:45:56.068Z,5.60
2019-01-09T16:48:59.477Z,5.60
2019-01-09T16:52:14.820Z,5.70
2019-01-09T16:55:37.182Z,5.70
2019-01-09T16:58:53.324Z,5.60
2019-01-09T17:02:15.728Z,5.50
2019-01-09T17:05:30.759Z,5.80
2019-01-09T17:08:46.184Z,5.80
2019-01-09T17:12:08.845Z,5.80
2019-01-09T17:15:32.630Z,5.70
2019-01-09T17:18:55.715Z,5.60
2019-01-09T17:22:19.573Z,5.60
2019-01-09T17:25:42.971Z,5.50
2019-01-09T17:29:20.228Z,5.60
2019-01-09T17:32:42.597Z,5.50
2019-01-09T17:35:58.320Z,5.40
2019-01-09T17:39:21.292Z,5.40
2019-01-09T17:42:36.649Z,5.40
2019-01-09T17:45:59.394Z,5.30
2019-01-09T17:49:17.608Z,5.30
2019-01-09T17:52:40.392Z,5.30
2019-01-09T17:56:07.952Z,5.40
2019-01-09T17:59:32.610Z,5.20
2019-01-09T18:03:07.801Z,5.30
2019-01-09T18:06:31.287Z,5.30
2019-01-09T18:09:46.448Z,5.30
2019-01-09T18:13:09.179Z,5.40
2019-01-09T18:16:24.642Z,5.30
2019-01-09T18:19:47.006Z,5.40
2019-01-09T18:23:02.740Z,5.40
2019-01-09T18:26:25.425Z,5.50
2019-01-09T18:29:42.896Z,5.60
2019-01-09T18:33:09.042Z,5.30
2019-01-09T18:37:32.114Z,5.20
2019-01-09T18:40:58.987Z,5.30
2019-01-09T18:44:22.192Z,5.20
2019-01-09T18:47:58.841Z,5.30
2019-01-09T18:51:33.353Z,5.10
2019-01-09T18:54:49.500Z,5.20
2019-01-09T18:58:11.901Z,5.70
2019-01-09T19:01:33.973Z,5.70
2019-01-09T19:04:56.398Z,5.60
2019-01-09T19:08:12.104Z,5.30
2019-01-09T19:11:34.822Z,5.30
2019-01-09T19:14:51.727Z,5.30
2019-01-09T19:18:14.404Z,5.20
2019-01-09T19:21:19.603Z,5.20
2019-01-09T19:24:42.001Z,5.10
2019-01-09T19:27:57.192Z,5.10
2019-01-09T19:31:20.009Z,5.00
2019-01-09T19:34:35.611Z,5.00
2019-01-09T19:37:51.085Z,5.20
2019-01-09T19:41:17.214Z,5.10
2019-01-09T19:44:41.882Z,4.90
2019-01-09T19:47:56.978Z,5.00
2019-01-09T19:51:17.434Z,5.10
2019-01-09T19:54:29.446Z,5.10
2019-01-09T19:57:52.179Z,5.20
2019-01-09T20:01:07.826Z,5.30
2019-01-09T20:04:23.676Z,5.20
2019-01-09T20:07:46.940Z,5.20
2019-01-09T20:11:03.064Z,5.20
2019-01-09T20:14:26.116Z,5.30
2019-01-09T20:18:03.202Z,5.30
2019-01-09T20:21:25.986Z,5.30
2019-01-09T20:24:41.762Z,5.10
2019-01-09T20:28:04.430Z,5.20
2019-01-09T20:31:20.545Z,5.20
2019-01-09T20:34:43.096Z,5.40
2019-01-09T20:37:58.618Z,5.20
2019-01-09T20:41:13.997Z,4.90
2019-01-09T20:44:36.671Z,4.90
2019-01-09T20:47:52.324Z,5.00
2019-01-09T20:51:14.717Z,5.00
2019-01-09T20:54:30.235Z,5.00
2019-01-09T20:57:46.049Z,5.10
2019-01-09T21:01:08.430Z,5.10
2019-01-09T21:04:24.342Z,5.00
2019-01-09T21:07:40.092Z,5.20
2019-01-09T21:11:02.892Z,5.20
2019-01-09T21:14:18.412Z,5.10
2019-01-09T21:17:41.150Z,5.10
2019-01-09T21:20:54.696Z,5.40
2019-01-09T21:24:17.070Z,5.80
2019-01-09T21:27:41.860Z,5.30
2019-01-09T21:30:56.891Z,5.30
2019-01-09T21:34:12.350Z,5.00
2019-01-09T21:37:35.029Z,5.10
2019-01-09T21:40:50.659Z,5.00
2019-01-09T21:44:16.171Z,5.00
2019-01-09T21:47:50.470Z,5.10
2019-01-09T21:51:13.039Z,4.90
2019-01-09T21:54:28.907Z,4.70
2019-01-09T21:57:51.414Z,4.90
2019-01-09T22:01:06.532Z,4.70
2019-01-09T22:04:29.368Z,4.70
2019-01-09T22:07:45.391Z,4.50
2019-01-09T22:11:07.861Z,4.80
2019-01-09T22:14:23.910Z,4.80
2019-01-09T22:17:46.409Z,4.80
2019-01-09T22:21:02.094Z,4.70
2019-01-09T22:24:18.181Z,4.90
2019-01-09T22:27:40.594Z,4.90
2019-01-09T22:30:56.747Z,4.80
2019-01-09T22:34:19.434Z,4.90
2019-01-09T22:37:35.053Z,4.90
2019-01-09T22:40:50.182Z,4.90
2019-01-09T22:44:12.557Z,4.80
2019-01-09T22:47:15.801Z,4.80
2019-01-09T22:50:31.605Z,4.90
2019-01-09T22:53:53.988Z,4.80
2019-01-09T22:57:09.184Z,4.90
2019-01-09T23:04:29.036Z,4.80
2019-01-09T23:07:46.646Z,4.90
2019-01-09T23:11:09.386Z,4.80
2019-01-09T23:14:25.355Z,4.70
2019-01-09T23:17:48.036Z,4.80
2019-01-09T23:21:03.639Z,4.80
2019-01-09T23:24:26.117Z,4.90
2019-01-09T23:27:41.660Z,4.80
2019-01-09T23:31:04.133Z,4.80
2019-01-09T23:34:19.141Z,4.80
2019-01-09T23:37:41.900Z,4.80
2019-01-09T23:40:58.512Z,4.80
2019-01-09T23:44:21.742Z,4.80
2019-01-09T23:47:37.949Z,4.70
2019-01-09T23:50:40.959Z,4.90
2019-01-09T23:53:56.698Z,4.80
2019-01-09T23:57:19.091Z,4.70
